Time;durP1;ratioP1;P1;durP2;ratioP2;P2;SDS_P1;SDS_P2;PMS_P1;PMS_P2;Temp;Humidity;BMP_temperature;BMP_pressure;BME280_temperature;BME280_humidity;BME280_pressure;Samples;Min_cycle;Max_cycle;Signal;HPM_P1;HPM_P2
2022/10/08 00:00:17;;;;;;;9.45;4.18;;;;;;;9.97;66.77;100153.81;10387485;28;20049;-64
2022/10/08 00:05:18;;;;;;;8.35;4.18;;;;;;;9.87;66.75;100147.41;10388326;28;20132;-64
2022/10/08 00:10:20;;;;;;;12.70;4.70;;;;;;;9.78;66.92;100153.09;10387523;28;20056;-65
2022/10/08 00:15:21;;;;;;;14.73;5.25;;;;;;;9.50;67.33;100149.28;10387913;28;20060;-65
2022/10/08 00:20:23;;;;;;;11.50;5.10;;;;;;;9.35;67.82;100154.47;10387357;28;20057;-65
2022/10/08 00:25:25;;;;;;;15.00;4.93;;;;;;;9.14;68.09;100159.00;10388790;28;20049;-64
2022/10/08 00:30:26;;;;;;;10.52;3.72;;;;;;;9.16;68.28;100159.75;10387658;28;20049;-64
2022/10/08 00:35:28;;;;;;;13.07;3.83;;;;;;;9.18;68.27;100159.72;10387858;28;20057;-64
2022/10/08 00:40:29;;;;;;;8.32;3.78;;;;;;;9.17;68.26;100166.69;10387394;28;20053;-64
2022/10/08 00:45:31;;;;;;;13.52;4.05;;;;;;;9.21;68.16;100159.53;10385643;28;20081;-64
2022/10/08 00:50:34;;;;;;;11.15;4.43;;;;;;;9.29;67.70;100163.44;10385052;28;20045;-64
2022/10/08 00:55:39;;;;;;;11.00;4.55;;;;;;;9.22;67.79;100156.84;10386205;28;20053;-64
2022/10/08 01:00:46;;;;;;;9.77;3.53;;;;;;;9.14;67.67;100152.94;10386021;28;20489;-64
2022/10/08 01:06:13;;;;;;;10.73;4.55;;;;;;;8.85;68.04;100151.78;10385662;28;20107;-64
2022/10/08 01:11:25;;;;;;;11.75;4.38;;;;;;;8.68;68.07;100142.19;10386089;28;20433;-65
2022/10/08 01:16:40;;;;;;;11.60;4.78;;;;;;;8.57;68.37;100146.19;10380767;28;20052;-64
2022/10/08 01:22:06;;;;;;;11.27;4.75;;;;;;;8.44;68.71;100147.72;10380834;28;20060;-64
2022/10/08 01:27:19;;;;;;;10.85;4.30;;;;;;;8.42;68.62;100133.91;10375327;28;20049;-65
2022/10/08 01:32:27;;;;;;;9.73;3.60;;;;;;;8.39;68.53;100140.13;10384840;28;20049;-64
2022/10/08 01:37:35;;;;;;;22.65;6.07;;;;;;;8.25;68.28;100145.13;10384783;28;20080;-64
2022/10/08 01:42:39;;;;;;;9.85;3.80;;;;;;;8.13;68.79;100139.66;10385578;28;20057;-65
2022/10/08 01:47:44;;;;;;;10.43;4.30;;;;;;;8.12;68.84;100130.97;10384491;28;20512;-65
2022/10/08 01:52:53;;;;;;;18.80;3.83;;;;;;;8.11;68.82;100136.28;10384787;28;20060;-65
2022/10/08 01:58:03;;;;;;;42.60;5.07;;;;;;;8.03;68.88;100134.84;10382988;28;20057;-64
2022/10/08 02:03:05;;;;;;;84.80;7.67;;;;;;;7.90;68.67;100136.31;10388784;28;20461;-64
2022/10/08 02:08:07;;;;;;;375.52;12.57;;;;;;;7.88;68.84;100129.47;10391667;28;20045;-64
2022/10/08 02:13:09;;;;;;;450.23;13.88;;;;;;;7.82;68.52;100128.00;10393697;28;20053;-64
2022/10/08 02:18:17;;;;;;;825.28;23.75;;;;;;;7.72;68.80;100133.69;10391329;28;20704;-65
2022/10/08 02:23:28;;;;;;;285.20;12.15;;;;;;;7.62;68.76;100130.66;10392445;28;20140;-64
2022/10/08 02:28:45;;;;;;;100.95;5.68;;;;;;;7.50;69.27;100138.16;10391999;28;20118;-64
2022/10/08 02:34:01;;;;;;;7.28;3.35;;;;;;;7.31;69.22;100134.66;10392873;28;20529;-64
2022/10/08 02:39:04;;;;;;;7.90;4.00;;;;;;;7.37;69.18;100129.19;10392159;28;20417;-64
2022/10/08 02:44:10;;;;;;;7.07;3.63;;;;;;;7.47;68.98;100138.31;10393154;28;20056;-64
2022/10/08 02:49:17;;;;;;;9.10;3.63;;;;;;;7.48;68.81;100143.44;10391805;28;20053;-64
2022/10/08 02:54:21;;;;;;;7.05;3.72;;;;;;;7.51;68.85;100143.28;10392676;28;20049;-64
2022/10/08 02:59:24;;;;;;;9.35;3.95;;;;;;;7.59;68.56;100149.00;10391740;28;20056;-64
2022/10/08 03:04:36;;;;;;;19.23;4.53;;;;;;;7.63;68.26;100134.13;10389265;28;20058;-65
2022/10/08 03:09:44;;;;;;;510.67;14.35;;;;;;;7.50;67.95;100139.00;10384676;28;20064;-64
2022/10/08 03:14:48;;;;;;;510.92;13.63;;;;;;;7.48;68.16;100142.59;10384210;28;20217;-64
2022/10/08 03:19:50;;;;;;;186.18;7.57;;;;;;;7.51;68.14;100139.88;10384856;28;20053;-65
2022/10/08 03:24:52;;;;;;;332.25;8.77;;;;;;;7.42;68.11;100135.91;10385362;28;20154;-64
2022/10/08 03:29:57;;;;;;;329.52;10.40;;;;;;;7.45;68.21;100143.56;10384230;28;20049;-64
2022/10/08 03:34:58;;;;;;;333.55;10.73;;;;;;;7.50;67.82;100148.56;10385481;28;20045;-64
2022/10/08 03:40:00;;;;;;;502.20;13.50;;;;;;;7.50;68.11;100149.41;10388138;28;20064;-65
2022/10/08 03:45:02;;;;;;;592.90;15.07;;;;;;;7.52;68.12;100158.00;10389945;28;20892;-64
2022/10/08 03:50:04;;;;;;;466.33;12.63;;;;;;;7.35;67.91;100164.81;10391921;28;20060;-64
2022/10/08 03:55:06;;;;;;;191.10;7.82;;;;;;;7.29;68.21;100163.34;10390656;28;20056;-66
2022/10/08 04:00:08;;;;;;;152.07;6.00;;;;;;;7.26;68.20;100173.91;10391537;28;20114;-65
2022/10/08 04:05:10;;;;;;;52.22;5.15;;;;;;;7.01;68.15;100176.69;10390607;28;20059;-65
2022/10/08 04:10:12;;;;;;;67.63;4.43;;;;;;;7.11;68.29;100174.53;10390600;28;20494;-65
2022/10/08 04:15:13;;;;;;;53.88;4.50;;;;;;;7.11;68.29;100179.72;10390988;28;20050;-65
2022/10/08 04:20:15;;;;;;;477.50;12.93;;;;;;;6.86;68.29;100181.63;10390286;28;20160;-65
2022/10/08 04:25:17;;;;;;;373.08;11.00;;;;;;;6.91;68.60;100187.50;10390543;28;20497;-65
2022/10/08 04:30:18;;;;;;;543.67;19.58;;;;;;;6.88;68.19;100195.41;10389506;28;20379;-65
2022/10/08 04:35:20;;;;;;;622.55;15.90;;;;;;;6.77;68.34;100189.81;10390339;28;20052;-65
2022/10/08 04:40:22;;;;;;;339.25;9.52;;;;;;;6.73;68.65;100188.25;10389506;28;20144;-64
2022/10/08 04:45:23;;;;;;;131.80;5.38;;;;;;;6.82;68.66;100198.25;10389047;28;20161;-64
2022/10/08 04:50:25;;;;;;;273.58;15.00;;;;;;;6.78;68.08;100191.50;10387813;28;20050;-65
2022/10/08 04:55:26;;;;;;;130.15;7.53;;;;;;;6.52;68.57;100195.13;10388158;28;21192;-65
2022/10/08 05:00:28;;;;;;;138.65;12.00;;;;;;;6.59;68.62;100190.56;10387563;28;20065;-65
2022/10/08 05:05:30;;;;;;;416.42;15.32;;;;;;;6.55;68.52;100197.59;10388505;28;20049;-65
2022/10/08 05:10:31;;;;;;;631.50;18.40;;;;;;;6.35;68.42;100203.56;10383304;28;20049;-66
2022/10/08 05:15:33;;;;;;;469.50;13.73;;;;;;;6.50;68.68;100201.28;10389083;28;20077;-65
2022/10/08 05:20:36;;;;;;;562.75;18.90;;;;;;;6.50;68.23;100204.75;10388760;28;20144;-65
2022/10/08 05:25:37;;;;;;;820.47;19.25;;;;;;;6.27;68.35;100203.03;10385929;28;20049;-66
2022/10/08 05:30:39;;;;;;;590.85;16.98;;;;;;;6.25;68.86;100201.38;10387627;28;20057;-66
2022/10/08 05:35:40;;;;;;;455.10;14.10;;;;;;;6.39;68.28;100208.66;10388072;28;20058;-65
2022/10/08 05:40:42;;;;;;;406.65;12.05;;;;;;;6.23;68.35;100209.19;10386976;28;20170;-65
2022/10/08 05:45:50;;;;;;;346.92;10.55;;;;;;;6.19;68.58;100211.97;10387496;28;20057;-65
2022/10/08 05:50:52;;;;;;;342.83;9.48;;;;;;;6.27;68.59;100213.41;10387080;28;20057;-65
2022/10/08 05:56:06;;;;;;;231.38;8.52;;;;;;;6.37;68.66;100213.91;10368803;28;20053;-65
2022/10/08 06:01:12;;;;;;;505.67;13.63;;;;;;;6.34;68.50;100214.88;10385447;28;20953;-65
2022/10/08 06:06:14;;;;;;;538.42;13.25;;;;;;;6.32;68.36;100214.09;10387261;28;20053;-65
2022/10/08 06:11:16;;;;;;;334.10;11.20;;;;;;;6.28;68.27;100222.91;10385835;28;20049;-65
2022/10/08 06:16:17;;;;;;;66.43;5.90;;;;;;;6.43;68.43;100236.22;10386102;28;20060;-66
2022/10/08 06:21:21;;;;;;;123.15;5.88;;;;;;;6.59;67.69;100242.53;10386533;28;20050;-66
2022/10/08 06:26:25;;;;;;;62.22;4.60;;;;;;;6.57;67.82;100245.16;10385919;28;20049;-66
2022/10/08 06:31:34;;;;;;;114.75;6.72;;;;;;;7.05;67.77;100255.41;10384999;28;20145;-65
2022/10/08 06:36:36;;;;;;;276.50;12.85;;;;;;;7.56;66.54;100247.19;10386038;28;20045;-66
2022/10/08 06:41:38;;;;;;;465.42;18.58;;;;;;;7.41;66.22;100258.25;10384712;28;20053;-66
2022/10/08 06:46:40;;;;;;;221.77;13.13;;;;;;;7.50;66.30;100256.13;10386728;28;20049;-66
2022/10/08 06:51:42;;;;;;;198.18;9.60;;;;;;;7.72;65.94;100263.84;10383780;28;20529;-67
2022/10/08 06:56:44;;;;;;;93.15;7.20;;;;;;;8.09;65.96;100258.75;10385682;28;20088;-65
2022/10/08 07:01:45;;;;;;;16.60;6.03;;;;;;;8.57;65.27;100263.50;10384673;28;20831;-65
2022/10/08 07:06:47;;;;;;;19.95;6.60;;;;;;;8.82;64.82;100269.28;10383355;28;20053;-66
2022/10/08 07:11:49;;;;;;;12.50;6.63;;;;;;;8.92;65.03;100274.91;10387164;28;20057;-65
2022/10/08 07:16:51;;;;;;;32.22;9.13;;;;;;;9.10;65.17;100274.88;10393327;28;20053;-66
2022/10/08 07:21:52;;;;;;;6.57;4.63;;;;;;;9.17;65.01;100284.09;10392887;28;20114;-66
2022/10/08 07:27:00;;;;;;;9.68;6.88;;;;;;;9.43;64.66;100291.50;10390669;28;20046;-66
2022/10/08 07:32:02;;;;;;;10.52;6.53;;;;;;;9.33;64.70;100300.72;10392342;28;20464;-66
2022/10/08 07:37:04;;;;;;;10.10;5.13;;;;;;;9.09;65.58;100301.91;10391188;28;20045;-65
2022/10/08 07:42:05;;;;;;;7.10;4.57;;;;;;;9.76;65.21;100311.66;10390700;28;20053;-66
2022/10/08 07:47:08;;;;;;;9.95;6.63;;;;;;;10.00;64.93;100311.25;10391609;28;20065;-65
2022/10/08 07:52:09;;;;;;;6.88;4.60;;;;;;;9.97;65.15;100313.19;10390834;28;20042;-66
2022/10/08 07:57:11;;;;;;;8.35;4.47;;;;;;;10.00;65.23;100323.47;10391400;28;20055;-66
2022/10/08 08:02:12;;;;;;;11.52;4.25;;;;;;;10.32;65.10;100320.03;10390785;28;20068;-65
2022/10/08 08:07:14;;;;;;;9.65;3.33;;;;;;;10.56;64.95;100331.84;10390799;28;20087;-66
2022/10/08 08:12:16;;;;;;;11.07;3.50;;;;;;;10.68;64.85;100331.19;10389114;28;20116;-66
2022/10/08 08:17:17;;;;;;;15.07;3.70;;;;;;;10.92;64.54;100348.16;10391592;28;20049;-66
2022/10/08 08:22:19;;;;;;;11.88;4.00;;;;;;;11.29;63.64;100347.84;10390326;28;20049;-66
2022/10/08 08:27:21;;;;;;;12.30;4.90;;;;;;;11.76;63.03;100349.53;10389735;28;20950;-66
2022/10/08 08:32:22;;;;;;;22.13;9.40;;;;;;;12.10;62.15;100352.72;10390453;28;20049;-66
2022/10/08 08:37:29;;;;;;;13.95;5.72;;;;;;;12.28;61.75;100361.28;10389280;28;20143;-80
2022/10/08 08:42:40;;;;;;;12.02;3.25;;;;;;;12.36;61.15;100361.69;10388950;28;20079;-81
2022/10/08 08:47:51;;;;;;;10.85;3.20;;;;;;;12.39;60.98;100369.38;10387512;28;20049;-81
2022/10/08 08:52:54;;;;;;;11.27;3.10;;;;;;;12.52;60.92;100380.78;10387041;28;20065;-82
2022/10/08 08:58:06;;;;;;;15.88;3.45;;;;;;;12.75;60.39;100377.63;10387814;28;20060;-82
2022/10/08 09:03:21;;;;;;;12.25;3.20;;;;;;;12.87;59.76;100382.13;10386216;28;20068;-81
2022/10/08 09:08:36;;;;;;;10.43;3.22;;;;;;;12.73;60.00;100382.13;10386390;28;20426;-82
2022/10/08 09:14:02;;;;;;;12.13;2.92;;;;;;;12.69;59.78;100396.38;10386525;28;20049;-83
2022/10/08 09:19:04;;;;;;;11.50;2.95;;;;;;;12.83;59.85;100395.50;10391995;28;20278;-82
2022/10/08 09:24:05;;;;;;;12.95;3.03;;;;;;;12.87;59.97;100405.75;10383268;28;20054;-81
2022/10/08 09:29:32;;;;;;;9.75;2.65;;;;;;;12.83;60.02;100408.63;10386933;28;20049;-81
2022/10/08 09:34:34;;;;;;;10.95;2.67;;;;;;;12.93;60.30;100421.09;10398539;28;20064;-81
2022/10/08 09:39:37;;;;;;;10.20;2.55;;;;;;;13.02;60.14;100429.34;10385637;28;20410;-81
2022/10/08 09:45:02;;;;;;;10.77;3.67;;;;;;;13.09;60.05;100430.69;10386504;28;20064;-82
2022/10/08 09:50:14;;;;;;;21.70;7.88;;;;;;;13.15;60.34;100427.66;10384263;28;20103;-81
2022/10/08 09:55:24;;;;;;;35.45;16.85;;;;;;;13.29;60.16;100443.41;10379747;28;20049;-81
2022/10/08 10:00:31;;;;;;;23.10;12.18;;;;;;;13.28;60.24;100452.22;10385804;28;21456;-82
2022/10/08 10:05:34;;;;;;;38.83;22.38;;;;;;;13.36;60.98;100449.94;10383038;28;20042;-80
2022/10/08 10:10:43;;;;;;;12.18;4.28;;;;;;;13.56;60.57;100460.06;10386759;28;20068;-79
2022/10/08 10:15:55;;;;;;;9.27;3.25;;;;;;;13.84;60.02;100461.78;10385311;28;20063;-80
2022/10/08 10:21:09;;;;;;;13.53;4.17;;;;;;;14.14;59.72;100447.47;10390437;28;20056;-82
2022/10/08 10:26:17;;;;;;;9.27;3.10;;;;;;;14.56;59.07;100452.53;10388661;28;20487;-81
2022/10/08 10:31:26;;;;;;;12.95;2.50;;;;;;;14.81;58.30;100456.09;10391760;28;20068;-82
2022/10/08 10:36:36;;;;;;;9.43;2.80;;;;;;;14.94;57.46;100454.31;10395568;28;20080;-80
2022/10/08 10:41:51;;;;;;;9.90;2.80;;;;;;;14.93;56.50;100457.88;10401175;28;20045;-81
2022/10/08 10:46:57;;;;;;;6.60;2.45;;;;;;;15.32;56.24;100455.09;10389534;28;20513;-83
2022/10/08 10:52:02;;;;;;;19.85;3.30;;;;;;;15.22;56.20;100461.97;10392983;28;20060;-82
2022/10/08 10:57:36;;;;;;;8.23;2.90;;;;;;;15.31;55.09;100463.94;10395754;28;20049;-82
2022/10/08 11:02:45;;;;;;;15.38;3.60;;;;;;;15.27;55.29;100455.41;10387548;28;20057;-82
2022/10/08 11:08:24;;;;;;;12.50;2.70;;;;;;;15.20;55.51;100448.91;10399924;28;20756;-81
2022/10/08 11:13:34;;;;;;;8.30;2.90;;;;;;;15.33;54.04;100448.88;10369509;28;20041;-81
2022/10/08 11:18:46;;;;;;;10.73;2.90;;;;;;;15.26;53.79;100448.47;10395719;28;20489;-81
2022/10/08 11:24:16;;;;;;;12.27;2.85;;;;;;;15.22;54.80;100448.81;10393212;28;20057;-82
2022/10/08 11:29:41;;;;;;;9.32;2.30;;;;;;;15.61;53.49;100450.41;10401097;28;20068;-81
2022/10/08 11:34:56;;;;;;;10.10;2.40;;;;;;;16.24;52.23;100443.03;10394340;28;20163;-81
2022/10/08 11:40:18;;;;;;;8.38;2.70;;;;;;;16.27;50.20;100444.59;10393637;28;20057;-81
2022/10/08 11:45:24;;;;;;;10.75;2.65;;;;;;;16.38;51.18;100444.63;10391101;28;20046;-79
2022/10/08 11:50:36;;;;;;;7.65;2.58;;;;;;;16.67;50.83;100436.19;10391317;28;20049;-82
2022/10/08 11:55:38;;;;;;;64.72;7.47;;;;;;;16.59;51.37;100441.22;10389972;28;20419;-82
2022/10/08 12:00:43;;;;;;;13.32;2.75;;;;;;;16.60;50.57;100431.50;10385082;28;20057;-79
2022/10/08 12:05:50;;;;;;;8.77;2.40;;;;;;;16.18;50.77;100433.75;10386284;28;20049;-79
2022/10/08 12:10:51;;;;;;;13.40;2.78;;;;;;;15.92;51.34;100437.50;10384775;28;20053;-78
2022/10/08 12:15:54;;;;;;;17.20;2.72;;;;;;;15.75;50.34;100435.28;10385914;28;20073;-77
2022/10/08 12:21:14;;;;;;;7.35;2.20;;;;;;;16.06;48.56;100432.03;10387347;28;20049;-79
2022/10/08 12:26:16;;;;;;;11.60;2.47;;;;;;;15.91;50.31;100433.19;10387452;28;20053;-77
2022/10/08 12:31:32;;;;;;;12.70;2.22;;;;;;;15.63;47.69;100430.91;10380689;28;20401;-77
2022/10/08 12:36:49;;;;;;;15.57;2.30;;;;;;;15.82;47.81;100430.38;10388016;28;20073;-77
2022/10/08 12:42:08;;;;;;;13.65;2.15;;;;;;;16.07;47.38;100420.56;10389264;28;20417;-78
2022/10/08 12:47:28;;;;;;;6.40;2.47;;;;;;;16.36;47.41;100414.88;10387622;28;20057;-78
2022/10/08 12:52:36;;;;;;;12.02;2.33;;;;;;;16.45;47.23;100407.13;10387829;28;20053;-80
2022/10/08 12:57:40;;;;;;;10.82;2.47;;;;;;;16.68;46.88;100408.00;10415559;28;20108;-76
2022/10/08 13:02:43;;;;;;;10.57;2.40;;;;;;;16.68;45.85;100408.00;10385682;28;20062;-76
2022/10/08 13:07:47;;;;;;;7.15;2.38;;;;;;;16.51;45.46;100413.75;10387627;28;20413;-75
2022/10/08 13:13:01;;;;;;;6.47;2.10;;;;;;;16.54;45.23;100411.72;10383876;28;20053;-74
2022/10/08 13:18:20;;;;;;;11.45;2.08;;;;;;;16.79;43.13;100408.00;10384451;28;20049;-75
2022/10/08 13:23:43;;;;;;;7.15;2.10;;;;;;;17.29;44.04;100401.34;10378885;28;20072;-78
2022/10/08 13:28:45;;;;;;;7.13;1.75;;;;;;;17.51;42.30;100410.13;10386787;28;20440;-79
2022/10/08 13:34:02;;;;;;;7.00;2.30;;;;;;;17.91;41.98;100409.53;10383706;28;20489;-78
2022/10/08 13:39:04;;;;;;;5.90;1.90;;;;;;;17.81;41.87;100423.50;10389489;28;20417;-82
2022/10/08 13:44:08;;;;;;;8.23;2.20;;;;;;;17.84;41.36;100410.03;10387520;28;20053;-81
2022/10/08 13:49:25;;;;;;;6.00;2.00;;;;;;;17.88;40.48;100412.41;10392975;28;20050;-81
2022/10/08 13:54:30;;;;;;;9.77;1.77;;;;;;;17.97;41.34;100411.66;10389000;28;20104;-81
2022/10/08 13:59:32;;;;;;;8.02;1.90;;;;;;;18.09;41.20;100405.34;10387986;28;20053;-81
2022/10/08 14:04:33;;;;;;;8.82;2.08;;;;;;;17.60;41.41;100421.78;10388142;28;20123;-80
2022/10/08 14:09:35;;;;;;;4.75;1.60;;;;;;;16.89;41.46;100432.75;10388436;28;20045;-77
2022/10/08 14:14:37;;;;;;;5.80;1.63;;;;;;;16.34;40.43;100428.19;10388436;28;20285;-79
2022/10/08 14:19:38;;;;;;;5.80;1.45;;;;;;;15.92;40.62;100437.50;10385795;28;20197;-80
2022/10/08 14:24:40;;;;;;;7.63;1.73;;;;;;;15.39;41.07;100444.00;10385612;28;20061;-78
2022/10/08 14:29:42;;;;;;;6.75;1.70;;;;;;;15.39;41.19;100443.16;10386406;28;20050;-79
2022/10/08 14:34:43;;;;;;;6.38;1.80;;;;;;;15.86;40.94;100445.88;10385231;28;20049;-79
2022/10/08 14:39:45;;;;;;;6.78;1.55;;;;;;;16.18;40.93;100449.59;10384504;28;20049;-79
2022/10/08 14:44:47;;;;;;;5.95;1.67;;;;;;;16.46;41.03;100448.41;10383371;28;20629;-80
2022/10/08 14:49:49;;;;;;;11.32;2.10;;;;;;;16.59;41.15;100446.50;10380433;28;20068;-78
2022/10/08 14:54:50;;;;;;;5.32;1.80;;;;;;;16.44;41.37;100450.34;10383321;28;20041;-79
2022/10/08 14:59:52;;;;;;;4.47;1.48;;;;;;;16.39;40.84;100449.78;10383379;28;20452;-79
2022/10/08 15:04:53;;;;;;;6.82;1.92;;;;;;;16.26;40.66;100456.13;10380714;28;20057;-81
2022/10/08 15:09:55;;;;;;;10.85;1.63;;;;;;;16.01;41.78;100451.81;10380462;28;20049;-81
2022/10/08 15:14:57;;;;;;;6.07;1.67;;;;;;;15.92;42.08;100450.69;10383438;28;20041;-81
2022/10/08 15:19:58;;;;;;;9.00;2.00;;;;;;;15.88;42.56;100457.16;10382706;28;20041;-82
2022/10/08 15:25:00;;;;;;;10.15;1.83;;;;;;;15.83;41.73;100456.66;10384050;28;20061;-81
2022/10/08 15:30:02;;;;;;;5.25;1.60;;;;;;;15.75;41.17;100455.53;10378972;28;20489;-80
2022/10/08 15:35:04;;;;;;;5.68;1.63;;;;;;;15.76;41.58;100458.03;10386491;28;20057;-81
2022/10/08 15:40:06;;;;;;;5.32;1.55;;;;;;;15.75;42.20;100469.56;10389128;28;20088;-80
2022/10/08 15:45:08;;;;;;;10.55;1.90;;;;;;;15.30;43.39;100471.03;10390690;28;20053;-81
2022/10/08 15:50:10;;;;;;;6.00;1.85;;;;;;;15.15;44.59;100481.78;10399934;28;20057;-81
2022/10/08 15:55:12;;;;;;;8.60;2.65;;;;;;;15.10;45.77;100487.38;10391166;28;20049;-82
2022/10/08 16:00:13;;;;;;;9.35;2.13;;;;;;;15.00;45.74;100493.41;10384805;28;20060;-81
2022/10/08 16:05:15;;;;;;;9.38;2.67;;;;;;;14.80;46.45;100497.38;10388203;28;20065;-80
2022/10/08 16:10:17;;;;;;;10.90;3.22;;;;;;;14.73;46.94;100508.44;10387979;28;20046;-81
2022/10/08 16:15:19;;;;;;;10.68;2.70;;;;;;;14.55;47.30;100514.00;10386617;28;20057;-82
2022/10/08 16:20:21;;;;;;;8.63;3.00;;;;;;;14.45;47.99;100518.16;10388053;28;20053;-81
2022/10/08 16:25:22;;;;;;;6.63;2.47;;;;;;;14.19;48.63;100520.81;10384324;28;20057;-81
2022/10/08 16:30:25;;;;;;;10.25;4.28;;;;;;;14.03;48.66;100528.00;10388307;28;20049;-79
2022/10/08 16:35:27;;;;;;;12.85;4.32;;;;;;;13.83;48.90;100534.56;10389788;28;20135;-81
2022/10/08 16:40:28;;;;;;;9.35;2.47;;;;;;;13.64;49.26;100537.50;10387362;28;20053;-81
2022/10/08 16:45:35;;;;;;;7.25;2.50;;;;;;;13.47;49.69;100552.63;10388088;28;20509;-81
2022/10/08 16:50:41;;;;;;;7.28;2.60;;;;;;;13.29;49.37;100565.06;10387926;28;20046;-82
2022/10/08 16:55:42;;;;;;;8.25;2.83;;;;;;;13.06;50.68;100578.75;10390552;28;20049;-80
2022/10/08 17:00:44;;;;;;;9.70;2.60;;;;;;;12.82;51.25;100580.22;10389198;28;20064;-79
2022/10/08 17:05:46;;;;;;;7.63;3.10;;;;;;;12.66;51.47;100595.16;10389904;28;20057;-80
2022/10/08 17:10:48;;;;;;;8.73;2.85;;;;;;;12.46;52.10;100603.31;10384156;28;20049;-80
2022/10/08 17:16:01;;;;;;;12.57;2.90;;;;;;;12.28;53.26;100610.44;10385058;28;20056;-80
2022/10/08 17:21:04;;;;;;;5.75;2.20;;;;;;;12.08;53.95;100626.41;10382285;28;20056;-79
2022/10/08 17:26:19;;;;;;;9.60;2.65;;;;;;;11.90;54.81;100627.41;10391671;28;20056;-78
2022/10/08 17:31:28;;;;;;;8.73;2.70;;;;;;;11.73;55.34;100638.78;10387935;28;20052;-82
2022/10/08 17:36:34;;;;;;;6.75;2.30;;;;;;;11.57;55.89;100653.63;10386974;28;20489;-81
2022/10/08 17:41:38;;;;;;;6.07;2.45;;;;;;;11.43;55.72;100663.13;10388423;28;20085;-81
2022/10/08 17:46:46;;;;;;;8.40;2.83;;;;;;;11.28;56.54;100673.47;10391139;28;20046;-81
2022/10/08 17:51:49;;;;;;;8.75;2.92;;;;;;;11.18;56.71;100687.94;10386408;28;20064;-80
2022/10/08 17:56:51;;;;;;;6.80;2.55;;;;;;;11.04;57.18;100698.25;10386048;28;20060;-79
2022/10/08 18:01:53;;;;;;;9.80;2.50;;;;;;;10.98;56.88;100706.38;10387297;28;20633;-80
2022/10/08 18:06:55;;;;;;;7.72;2.70;;;;;;;10.85;57.61;100705.28;10377335;28;20049;-80
2022/10/08 18:12:03;;;;;;;8.77;2.55;;;;;;;10.76;57.93;100710.13;10371220;28;20054;-79
2022/10/08 18:17:05;;;;;;;8.50;2.70;;;;;;;10.69;58.27;100717.41;10385202;28;20081;-66
2022/10/08 18:22:07;;;;;;;12.13;3.10;;;;;;;10.52;58.34;100729.59;10382359;28;20520;-67
2022/10/08 18:27:08;;;;;;;11.00;4.60;;;;;;;10.37;58.88;100734.63;10380857;28;20549;-66
2022/10/08 18:32:10;;;;;;;11.82;4.25;;;;;;;10.19;59.64;100739.84;10382766;28;20053;-67
2022/10/08 18:37:12;;;;;;;11.40;3.45;;;;;;;10.06;59.50;100747.38;10384998;28;20056;-66
2022/10/08 18:42:13;;;;;;;10.60;3.63;;;;;;;9.96;59.91;100758.31;10383382;28;20084;-67
2022/10/08 18:47:15;;;;;;;10.02;3.40;;;;;;;9.88;60.21;100763.00;10383052;28;20050;-67
2022/10/08 18:52:16;;;;;;;13.43;3.45;;;;;;;9.83;60.51;100765.00;10379789;28;20836;-67
2022/10/08 18:57:22;;;;;;;13.52;3.50;;;;;;;9.76;60.87;100758.31;10379758;28;20045;-66
2022/10/08 19:02:23;;;;;;;10.20;3.45;;;;;;;9.63;61.10;100774.50;10382204;28;20057;-66
2022/10/08 19:07:25;;;;;;;10.30;3.30;;;;;;;9.61;61.20;100773.72;10382533;28;20057;-66
2022/10/08 19:12:27;;;;;;;11.02;4.25;;;;;;;9.48;61.44;100774.31;10387578;28;20520;-67
2022/10/08 19:17:29;;;;;;;8.60;3.30;;;;;;;9.35;61.61;100784.41;10385011;28;20053;-67
2022/10/08 19:22:30;;;;;;;9.10;3.20;;;;;;;9.21;62.00;100794.56;10386843;28;20064;-65
2022/10/08 19:27:32;;;;;;;10.05;3.47;;;;;;;9.14;62.18;100793.09;10390388;28;20592;-67
2022/10/08 19:32:33;;;;;;;10.98;3.60;;;;;;;9.13;62.30;100798.38;10389477;28;20053;-67
2022/10/08 19:37:35;;;;;;;10.10;3.60;;;;;;;9.04;62.63;100802.19;10388139;28;20053;-67
2022/10/08 19:42:37;;;;;;;9.30;3.83;;;;;;;8.89;62.75;100800.22;10391456;28;20489;-65
2022/10/08 19:47:39;;;;;;;9.43;3.58;;;;;;;8.80;62.71;100813.59;10387931;28;20056;-65
2022/10/08 19:52:40;;;;;;;6.22;3.40;;;;;;;8.68;62.90;100803.63;10420003;28;20041;-67
2022/10/08 19:57:42;;;;;;;9.38;3.63;;;;;;;8.50;63.10;100820.81;10389906;28;20053;-67
2022/10/08 20:02:44;;;;;;;10.68;3.92;;;;;;;8.43;63.19;100823.69;10389245;28;20057;-67
2022/10/08 20:07:46;;;;;;;8.57;3.58;;;;;;;8.40;63.30;100835.09;10386917;28;20048;-66
2022/10/08 20:12:47;;;;;;;9.55;3.58;;;;;;;8.35;63.20;100838.75;10386830;28;20051;-66
2022/10/08 20:17:49;;;;;;;15.77;3.92;;;;;;;8.00;63.83;100843.44;10388903;28;20115;-66
2022/10/08 20:22:51;;;;;;;11.27;3.78;;;;;;;7.93;63.76;100860.19;10383925;28;20053;-66
2022/10/08 20:27:53;;;;;;;7.63;3.70;;;;;;;7.90;63.83;100852.47;10387348;28;20505;-66
2022/10/08 20:32:54;;;;;;;11.70;3.80;;;;;;;7.88;64.18;100859.50;10388749;28;20524;-67
2022/10/08 20:37:56;;;;;;;11.00;4.60;;;;;;;7.98;64.12;100873.03;10386607;28;20053;-65
2022/10/08 20:42:58;;;;;;;13.73;5.80;;;;;;;7.94;64.17;100867.09;10387088;28;20088;-65
2022/10/08 20:47:59;;;;;;;12.15;5.00;;;;;;;7.98;64.04;100873.91;10386554;28;20060;-65
2022/10/08 20:53:01;;;;;;;11.13;4.13;;;;;;;7.97;64.13;100874.81;10385194;28;20053;-65
2022/10/08 20:58:04;;;;;;;13.10;5.43;;;;;;;7.98;63.89;100873.03;10386831;28;20418;-66
2022/10/08 21:03:05;;;;;;;10.60;6.05;;;;;;;7.95;63.96;100865.34;10385861;28;20061;-66
2022/10/08 21:08:08;;;;;;;13.73;5.85;;;;;;;7.84;63.98;100875.28;10382638;28;20060;-65
2022/10/08 21:13:09;;;;;;;12.82;4.93;;;;;;;7.64;64.04;100877.69;10383892;28;20568;-65
2022/10/08 21:18:11;;;;;;;11.48;4.22;;;;;;;7.65;64.06;100872.41;10385311;28;20045;-65
2022/10/08 21:23:13;;;;;;;12.88;4.45;;;;;;;7.60;64.06;100876.09;10384114;28;20609;-65
2022/10/08 21:28:14;;;;;;;6.40;3.50;;;;;;;7.59;64.24;100879.59;10384525;28;20042;-66
2022/10/08 21:33:16;;;;;;;14.75;4.68;;;;;;;7.58;64.08;100883.94;10384068;28;20053;-66
2022/10/08 21:38:17;;;;;;;11.07;4.05;;;;;;;7.52;63.99;100888.50;10379871;28;20033;-65
2022/10/08 21:43:19;;;;;;;8.38;4.15;;;;;;;7.37;64.09;100889.81;10382329;28;20285;-65
2022/10/08 21:48:22;;;;;;;9.27;4.10;;;;;;;7.31;64.03;100886.56;10384533;28;20053;-65
2022/10/08 21:53:24;;;;;;;13.55;4.53;;;;;;;7.23;64.12;100885.94;10381610;28;20053;-66
2022/10/08 21:58:28;;;;;;;11.57;4.00;;;;;;;7.11;64.28;100884.59;10384742;28;20046;-66
2022/10/08 22:03:29;;;;;;;11.02;3.78;;;;;;;7.08;64.43;100892.50;10383045;28;20061;-66
2022/10/08 22:08:31;;;;;;;10.43;3.90;;;;;;;7.10;64.54;100888.94;10383986;28;20049;-66
2022/10/08 22:13:33;;;;;;;9.38;4.30;;;;;;;7.08;64.55;100901.13;10382532;28;20050;-66
2022/10/08 22:18:34;;;;;;;9.90;4.70;;;;;;;7.02;64.78;100898.72;10383933;28;20589;-65
2022/10/08 22:23:36;;;;;;;12.32;5.05;;;;;;;7.01;64.69;100898.75;10383221;28;20844;-65
2022/10/08 22:28:38;;;;;;;10.95;4.63;;;;;;;6.99;64.56;100897.97;10382833;28;20045;-65
2022/10/08 22:33:40;;;;;;;10.48;4.80;;;;;;;6.97;65.05;100899.75;10382287;28;20053;-65
2022/10/08 22:38:43;;;;;;;15.48;8.40;;;;;;;6.92;65.17;100893.81;10380485;28;20041;-65
2022/10/08 22:43:45;;;;;;;14.32;5.93;;;;;;;6.96;64.71;100893.69;10384470;28;20069;-65
2022/10/08 22:48:47;;;;;;;17.30;8.73;;;;;;;6.78;64.99;100888.19;10390621;28;20068;-65
2022/10/08 22:53:49;;;;;;;11.75;6.15;;;;;;;6.75;65.02;100890.88;10389690;28;20053;-66
2022/10/08 22:58:51;;;;;;;16.05;9.02;;;;;;;6.64;64.49;100888.59;10389398;28;20060;-69
2022/10/08 23:03:54;;;;;;;14.82;6.28;;;;;;;6.25;65.12;100894.88;10388736;28;20071;-66
2022/10/08 23:08:58;;;;;;;8.73;4.68;;;;;;;6.26;65.25;100894.84;10388004;28;20056;-66
2022/10/08 23:14:00;;;;;;;9.05;4.47;;;;;;;6.20;65.15;100895.00;10391559;28;20177;-66